Terminal Aerodrome Forecast
Issued by NWS

Home | Current Version | Previous Version | Text Only | Print | Product List | Glossary On
Versions: 1 2 3 4 5 6 7 8 9 10 11 12 13
000
FTUS46 KSEW 251700
TAFBLI
TAF
KBLI 251740Z 2518/2618 15008KT P6SM FEW014 BKN026
     FM251900 17007KT P6SM SCT025 BKN035
     FM252200 20006KT P6SM SCT050
     FM260700 15003KT P6SM SCT150
     FM261600 16010KT P6SM BKN150=

USA.gov is the U.S. government's official web portal to all federal, state and local government web resources and services.